sensor_id;sensor_type;location;lat;lon;timestamp;pressure;altitude;pressure_sealevel;temperature;humidity
28289;BME280;15558;50.874;6.964;2022-09-01T00:01:26;101553.59;;;22.92;49.97
28289;BME280;15558;50.874;6.964;2022-09-01T00:03:54;101558.75;;;22.87;49.93
28289;BME280;15558;50.874;6.964;2022-09-01T00:06:23;101550.16;;;22.87;49.49
28289;BME280;15558;50.874;6.964;2022-09-01T00:08:50;101554.31;;;22.77;50.25
28289;BME280;15558;50.874;6.964;2022-09-01T00:11:17;101560.66;;;22.71;50.21
28289;BME280;15558;50.874;6.964;2022-09-01T00:13:43;101558.28;;;22.61;50.40
28289;BME280;15558;50.874;6.964;2022-09-01T00:16:10;101557.31;;;22.57;50.68
28289;BME280;15558;50.874;6.964;2022-09-01T00:18:39;101555.66;;;22.56;50.76
28289;BME280;15558;50.874;6.964;2022-09-01T00:21:09;101569.28;;;22.47;50.66
28289;BME280;15558;50.874;6.964;2022-09-01T00:23:36;101566.91;;;22.49;50.59
28289;BME280;15558;50.874;6.964;2022-09-01T00:26:03;101564.59;;;22.43;51.16
28289;BME280;15558;50.874;6.964;2022-09-01T00:28:32;101561.66;;;22.39;51.17
28289;BME280;15558;50.874;6.964;2022-09-01T00:30:58;101571.91;;;22.28;51.29
28289;BME280;15558;50.874;6.964;2022-09-01T00:33:24;101560.81;;;22.27;51.50
28289;BME280;15558;50.874;6.964;2022-09-01T00:35:50;101572.38;;;22.18;51.45
28289;BME280;15558;50.874;6.964;2022-09-01T00:38:16;101570.00;;;22.20;52.13
28289;BME280;15558;50.874;6.964;2022-09-01T00:40:42;101570.00;;;22.20;52.09
28289;BME280;15558;50.874;6.964;2022-09-01T00:46:10;101563.19;;;22.13;52.78
28289;BME280;15558;50.874;6.964;2022-09-01T00:48:37;101561.34;;;22.09;52.81
28289;BME280;15558;50.874;6.964;2022-09-01T00:51:04;101564.47;;;22.16;53.17
28289;BME280;15558;50.874;6.964;2022-09-01T00:53:32;101569.72;;;22.14;52.70
28289;BME280;15558;50.874;6.964;2022-09-01T00:55:59;101554.72;;;22.17;53.10
28289;BME280;15558;50.874;6.964;2022-09-01T00:58:25;101546.84;;;22.14;53.21
28289;BME280;15558;50.874;6.964;2022-09-01T01:00:52;101553.91;;;22.16;53.01
28289;BME280;15558;50.874;6.964;2022-09-01T01:03:19;101555.56;;;22.17;52.30
28289;BME280;15558;50.874;6.964;2022-09-01T01:05:48;101544.94;;;22.17;52.18
28289;BME280;15558;50.874;6.964;2022-09-01T01:08:23;101546.63;;;22.18;51.95
28289;BME280;15558;50.874;6.964;2022-09-01T01:11:10;101553.41;;;22.26;51.48
28289;BME280;15558;50.874;6.964;2022-09-01T01:13:48;101545.44;;;22.31;50.78
28289;BME280;15558;50.874;6.964;2022-09-01T01:16:16;101551.16;;;22.31;50.38
28289;BME280;15558;50.874;6.964;2022-09-01T01:18:42;101555.31;;;22.34;49.89
28289;BME280;15558;50.874;6.964;2022-09-01T01:21:18;101550.41;;;22.34;50.00
28289;BME280;15558;50.874;6.964;2022-09-01T01:26:44;101557.81;;;22.35;50.09
28289;BME280;15558;50.874;6.964;2022-09-01T01:29:12;101553.75;;;22.36;49.70
28289;BME280;15558;50.874;6.964;2022-09-01T01:31:38;101555.91;;;22.27;50.25
28289;BME280;15558;50.874;6.964;2022-09-01T01:34:04;101557.22;;;22.30;50.05
28289;BME280;15558;50.874;6.964;2022-09-01T01:36:36;101551.88;;;22.28;49.53
28289;BME280;15558;50.874;6.964;2022-09-01T01:41:31;101547.47;;;22.19;50.77
28289;BME280;15558;50.874;6.964;2022-09-01T01:44:00;101548.28;;;22.19;50.68
28289;BME280;15558;50.874;6.964;2022-09-01T01:46:28;101555.16;;;22.07;51.17
28289;BME280;15558;50.874;6.964;2022-09-01T01:48:55;101553.25;;;21.99;51.33
28289;BME280;15558;50.874;6.964;2022-09-01T01:51:21;101556.22;;;21.90;51.93
28289;BME280;15558;50.874;6.964;2022-09-01T01:53:54;101555.72;;;21.88;51.38
28289;BME280;15558;50.874;6.964;2022-09-01T01:56:21;101562.75;;;21.79;52.00
28289;BME280;15558;50.874;6.964;2022-09-01T01:58:55;101562.00;;;21.70;52.61
28289;BME280;15558;50.874;6.964;2022-09-01T02:01:24;101565.34;;;21.60;52.55
28289;BME280;15558;50.874;6.964;2022-09-01T02:03:51;101573.28;;;21.55;52.72
28289;BME280;15558;50.874;6.964;2022-09-01T02:06:19;101570.41;;;21.55;53.12
28289;BME280;15558;50.874;6.964;2022-09-01T02:08:46;101562.44;;;21.48;53.46
28289;BME280;15558;50.874;6.964;2022-09-01T02:11:12;101568.13;;;21.48;53.58
28289;BME280;15558;50.874;6.964;2022-09-01T02:13:38;101569.19;;;21.44;53.58
28289;BME280;15558;50.874;6.964;2022-09-01T02:16:06;101568.06;;;21.37;54.04
28289;BME280;15558;50.874;6.964;2022-09-01T02:18:39;101568.88;;;21.37;53.53
28289;BME280;15558;50.874;6.964;2022-09-01T02:21:10;101567.22;;;21.36;54.04
28289;BME280;15558;50.874;6.964;2022-09-01T02:23:39;101574.47;;;21.34;53.74
28289;BME280;15558;50.874;6.964;2022-09-01T02:26:07;101570.44;;;21.35;53.86
28289;BME280;15558;50.874;6.964;2022-09-01T02:28:37;101570.44;;;21.35;54.50
28289;BME280;15558;50.874;6.964;2022-09-01T02:31:09;101568.97;;;21.29;54.42
28289;BME280;15558;50.874;6.964;2022-09-01T02:33:36;101561.69;;;21.19;55.19
28289;BME280;15558;50.874;6.964;2022-09-01T02:36:07;101558.13;;;21.22;54.81
28289;BME280;15558;50.874;6.964;2022-09-01T02:38:33;101558.34;;;21.17;54.79
28289;BME280;15558;50.874;6.964;2022-09-01T02:41:01;101566.28;;;21.12;55.04
28289;BME280;15558;50.874;6.964;2022-09-01T02:43:28;101565.09;;;21.13;54.98
28289;BME280;15558;50.874;6.964;2022-09-01T02:45:57;101564.31;;;21.04;55.30
28289;BME280;15558;50.874;6.964;2022-09-01T02:48:36;101561.28;;;21.09;55.34
28289;BME280;15558;50.874;6.964;2022-09-01T02:51:05;101560.16;;;21.02;55.10
28289;BME280;15558;50.874;6.964;2022-09-01T02:53:32;101564.06;;;20.97;55.58
28289;BME280;15558;50.874;6.964;2022-09-01T02:56:00;101559.41;;;20.93;56.04
28289;BME280;15558;50.874;6.964;2022-09-01T02:58:29;101556.69;;;20.96;56.13
28289;BME280;15558;50.874;6.964;2022-09-01T03:00:57;101553.22;;;20.91;55.84
28289;BME280;15558;50.874;6.964;2022-09-01T03:03:24;101565.34;;;20.88;56.33
28289;BME280;15558;50.874;6.964;2022-09-01T03:05:51;101566.16;;;20.88;56.39
28289;BME280;15558;50.874;6.964;2022-09-01T03:08:23;101558.78;;;20.87;56.49
28289;BME280;15558;50.874;6.964;2022-09-01T03:10:50;101556.78;;;20.88;56.64
28289;BME280;15558;50.874;6.964;2022-09-01T03:13:19;101557.25;;;20.90;56.72
28289;BME280;15558;50.874;6.964;2022-09-01T03:15:46;101563.38;;;20.80;56.61
28289;BME280;15558;50.874;6.964;2022-09-01T03:18:13;101560.88;;;20.78;57.12
28289;BME280;15558;50.874;6.964;2022-09-01T03:20:42;101562.56;;;20.79;57.36
28289;BME280;15558;50.874;6.964;2022-09-01T03:23:14;101569.09;;;20.80;57.37
28289;BME280;15558;50.874;6.964;2022-09-01T03:25:42;101566.09;;;20.76;57.14
28289;BME280;15558;50.874;6.964;2022-09-01T03:28:08;101567.63;;;20.74;57.35
28289;BME280;15558;50.874;6.964;2022-09-01T03:30:39;101566.28;;;20.72;57.43
28289;BME280;15558;50.874;6.964;2022-09-01T03:33:08;101559.75;;;20.71;57.55
28289;BME280;15558;50.874;6.964;2022-09-01T03:35:34;101568.00;;;20.64;57.93
28289;BME280;15558;50.874;6.964;2022-09-01T03:38:01;101562.66;;;20.63;57.77
28289;BME280;15558;50.874;6.964;2022-09-01T03:40:31;101566.69;;;20.62;57.55
28289;BME280;15558;50.874;6.964;2022-09-01T03:43:02;101562.19;;;20.52;57.67
28289;BME280;15558;50.874;6.964;2022-09-01T03:45:30;101551.81;;;20.48;57.94
28289;BME280;15558;50.874;6.964;2022-09-01T03:47:59;101554.38;;;20.41;58.23
28289;BME280;15558;50.874;6.964;2022-09-01T03:50:25;101560.91;;;20.41;58.53
28289;BME280;15558;50.874;6.964;2022-09-01T03:52:55;101567.47;;;20.42;58.69
28289;BME280;15558;50.874;6.964;2022-09-01T03:55:27;101560.63;;;20.35;58.58
28289;BME280;15558;50.874;6.964;2022-09-01T03:57:59;101558.00;;;20.30;58.84
28289;BME280;15558;50.874;6.964;2022-09-01T04:00:28;101561.31;;;20.32;58.41
28289;BME280;15558;50.874;6.964;2022-09-01T04:02:57;101552.81;;;20.23;58.82
28289;BME280;15558;50.874;6.964;2022-09-01T04:05:25;101553.00;;;20.18;58.80
28289;BME280;15558;50.874;6.964;2022-09-01T04:07:55;101560.78;;;20.09;59.04
28289;BME280;15558;50.874;6.964;2022-09-01T04:10:22;101554.38;;;20.12;59.03
28289;BME280;15558;50.874;6.964;2022-09-01T04:12:49;101550.06;;;20.06;59.21
28289;BME280;15558;50.874;6.964;2022-09-01T04:15:16;101556.59;;;20.07;59.28
28289;BME280;15558;50.874;6.964;2022-09-01T04:17:43;101553.28;;;20.05;59.01
28289;BME280;15558;50.874;6.964;2022-09-01T04:20:28;101555.13;;;20.01;59.25
28289;BME280;15558;50.874;6.964;2022-09-01T04:23:00;101557.81;;;19.98;59.60
28289;BME280;15558;50.874;6.964;2022-09-01T04:25:36;101559.00;;;19.97;59.74
28289;BME280;15558;50.874;6.964;2022-09-01T04:28:03;101563.03;;;19.96;59.69
28289;BME280;15558;50.874;6.964;2022-09-01T04:30:38;101562.84;;;19.92;59.68
28289;BME280;15558;50.874;6.964;2022-09-01T04:33:06;101562.72;;;19.89;59.90
28289;BME280;15558;50.874;6.964;2022-09-01T04:35:37;101570.78;;;19.87;59.89
28289;BME280;15558;50.874;6.964;2022-09-01T04:38:03;101567.94;;;19.87;60.03
28289;BME280;15558;50.874;6.964;2022-09-01T04:40:30;101556.88;;;19.77;60.24
28289;BME280;15558;50.874;6.964;2022-09-01T04:42:56;101560.41;;;19.74;60.40
28289;BME280;15558;50.874;6.964;2022-09-01T04:45:22;101562.59;;;19.68;60.30
28289;BME280;15558;50.874;6.964;2022-09-01T04:47:52;101553.53;;;19.67;60.40
28289;BME280;15558;50.874;6.964;2022-09-01T04:50:18;101554.25;;;19.64;60.56
28289;BME280;15558;50.874;6.964;2022-09-01T04:52:46;101564.28;;;19.61;60.81
28289;BME280;15558;50.874;6.964;2022-09-01T04:55:13;101558.59;;;19.61;60.67
28289;BME280;15558;50.874;6.964;2022-09-01T04:57:46;101562.94;;;19.59;60.78
28289;BME280;15558;50.874;6.964;2022-09-01T05:00:17;101566.81;;;19.54;60.94
28289;BME280;15558;50.874;6.964;2022-09-01T05:02:59;101570.50;;;19.55;61.10
28289;BME280;15558;50.874;6.964;2022-09-01T05:05:36;101576.69;;;19.57;61.47
28289;BME280;15558;50.874;6.964;2022-09-01T05:08:08;101573.53;;;19.50;61.44
28289;BME280;15558;50.874;6.964;2022-09-01T05:10:44;101578.53;;;19.53;61.68
28289;BME280;15558;50.874;6.964;2022-09-01T05:13:12;101575.03;;;19.56;61.47
28289;BME280;15558;50.874;6.964;2022-09-01T05:15:39;101577.06;;;19.55;61.72
28289;BME280;15558;50.874;6.964;2022-09-01T05:18:15;101577.22;;;19.50;61.78
28289;BME280;15558;50.874;6.964;2022-09-01T05:20:49;101582.25;;;19.53;61.93
28289;BME280;15558;50.874;6.964;2022-09-01T05:23:16;101576.72;;;19.48;62.21
28289;BME280;15558;50.874;6.964;2022-09-01T05:25:46;101576.53;;;19.62;61.97
28289;BME280;15558;50.874;6.964;2022-09-01T05:28:15;101575.16;;;19.59;62.32
28289;BME280;15558;50.874;6.964;2022-09-01T05:30:45;101568.81;;;19.62;62.33
28289;BME280;15558;50.874;6.964;2022-09-01T05:33:12;101580.88;;;19.59;62.62
28289;BME280;15558;50.874;6.964;2022-09-01T05:35:42;101569.81;;;19.66;62.42
28289;BME280;15558;50.874;6.964;2022-09-01T05:38:17;101578.50;;;19.69;62.37
28289;BME280;15558;50.874;6.964;2022-09-01T05:40:43;101584.84;;;19.75;62.17
28289;BME280;15558;50.874;6.964;2022-09-01T05:43:12;101580.84;;;19.76;62.15
28289;BME280;15558;50.874;6.964;2022-09-01T05:45:40;101586.03;;;19.74;62.66
28289;BME280;15558;50.874;6.964;2022-09-01T05:48:10;101576.47;;;19.78;62.72
28289;BME280;15558;50.874;6.964;2022-09-01T05:50:40;101586.03;;;19.91;62.40
28289;BME280;15558;50.874;6.964;2022-09-01T05:53:09;101589.88;;;19.95;61.79
28289;BME280;15558;50.874;6.964;2022-09-01T05:55:45;101590.81;;;19.99;61.91
28289;BME280;15558;50.874;6.964;2022-09-01T05:58:12;101584.97;;;20.04;61.82
28289;BME280;15558;50.874;6.964;2022-09-01T06:00:41;101592.97;;;20.10;61.20
28289;BME280;15558;50.874;6.964;2022-09-01T06:03:09;101586.19;;;20.23;60.64
28289;BME280;15558;50.874;6.964;2022-09-01T06:05:36;101591.53;;;20.33;60.44
28289;BME280;15558;50.874;6.964;2022-09-01T06:08:06;101591.47;;;20.41;60.41
28289;BME280;15558;50.874;6.964;2022-09-01T06:10:36;101591.06;;;20.51;58.64
28289;BME280;15558;50.874;6.964;2022-09-01T06:13:08;101587.84;;;20.52;59.44
28289;BME280;15558;50.874;6.964;2022-09-01T06:15:35;101586.19;;;20.60;59.15
28289;BME280;15558;50.874;6.964;2022-09-01T06:18:05;101592.16;;;20.67;59.35
28289;BME280;15558;50.874;6.964;2022-09-01T06:20:31;101593.03;;;20.67;59.19
28289;BME280;15558;50.874;6.964;2022-09-01T06:22:57;101600.16;;;20.73;58.62
28289;BME280;15558;50.874;6.964;2022-09-01T06:25:24;101593.78;;;20.76;57.82
28289;BME280;15558;50.874;6.964;2022-09-01T06:27:55;101597.47;;;20.76;56.49
28289;BME280;15558;50.874;6.964;2022-09-01T06:30:22;101595.19;;;20.90;53.74
28289;BME280;15558;50.874;6.964;2022-09-01T06:32:54;101593.81;;;20.96;53.49
28289;BME280;15558;50.874;6.964;2022-09-01T06:35:21;101602.09;;;21.10;53.17
28289;BME280;15558;50.874;6.964;2022-09-01T06:37:49;101588.94;;;21.17;52.49
28289;BME280;15558;50.874;6.964;2022-09-01T06:40:15;101594.91;;;21.24;52.35
28289;BME280;15558;50.874;6.964;2022-09-01T06:42:45;101593.59;;;21.42;52.06
28289;BME280;15558;50.874;6.964;2022-09-01T06:45:14;101590.66;;;21.50;52.02
28289;BME280;15558;50.874;6.964;2022-09-01T06:47:41;101598.75;;;21.48;52.08
28289;BME280;15558;50.874;6.964;2022-09-01T06:50:11;101600.09;;;21.62;52.17
28289;BME280;15558;50.874;6.964;2022-09-01T06:52:40;101600.94;;;21.63;51.11
28289;BME280;15558;50.874;6.964;2022-09-01T06:55:09;101600.75;;;21.80;52.17
28289;BME280;15558;50.874;6.964;2022-09-01T06:57:36;101597.69;;;21.96;49.19
28289;BME280;15558;50.874;6.964;2022-09-01T07:00:05;101604.97;;;22.06;49.22
28289;BME280;15558;50.874;6.964;2022-09-01T07:02:32;101599.38;;;22.09;48.90
28289;BME280;15558;50.874;6.964;2022-09-01T07:04:58;101599.81;;;21.99;50.39
28289;BME280;15558;50.874;6.964;2022-09-01T07:07:24;101600.09;;;22.06;51.00
28289;BME280;15558;50.874;6.964;2022-09-01T07:09:58;101609.78;;;22.14;50.96
28289;BME280;15558;50.874;6.964;2022-09-01T07:12:24;101613.19;;;22.07;48.38
28289;BME280;15558;50.874;6.964;2022-09-01T07:14:50;101609.91;;;22.17;47.58
28289;BME280;15558;50.874;6.964;2022-09-01T07:17:17;101609.44;;;22.27;49.13
28289;BME280;15558;50.874;6.964;2022-09-01T07:19:44;101607.53;;;22.43;49.29
28289;BME280;15558;50.874;6.964;2022-09-01T07:22:11;101617.91;;;22.35;47.94
28289;BME280;15558;50.874;6.964;2022-09-01T07:24:37;101611.69;;;22.57;49.06
28289;BME280;15558;50.874;6.964;2022-09-01T07:27:04;101608.13;;;22.60;48.85
28289;BME280;15558;50.874;6.964;2022-09-01T07:29:30;101607.28;;;22.83;46.97
28289;BME280;15558;50.874;6.964;2022-09-01T07:31:57;101600.13;;;23.01;47.03
28289;BME280;15558;50.874;6.964;2022-09-01T07:34:23;101597.81;;;23.18;46.45
28289;BME280;15558;50.874;6.964;2022-09-01T07:36:51;101598.78;;;23.37;45.54
28289;BME280;15558;50.874;6.964;2022-09-01T07:39:17;101594.75;;;23.38;45.40
28289;BME280;15558;50.874;6.964;2022-09-01T07:41:43;101596.72;;;23.50;46.01
28289;BME280;15558;50.874;6.964;2022-09-01T07:44:09;101600.88;;;23.64;46.88
28289;BME280;15558;50.874;6.964;2022-09-01T07:46:37;101606.63;;;23.79;44.12
28289;BME280;15558;50.874;6.964;2022-09-01T07:49:03;101602.50;;;23.92;43.23
28289;BME280;15558;50.874;6.964;2022-09-01T07:51:30;101598.72;;;24.03;43.60
28289;BME280;15558;50.874;6.964;2022-09-01T07:53:58;101593.91;;;24.07;43.02
28289;BME280;15558;50.874;6.964;2022-09-01T07:56:27;101593.91;;;24.07;43.35
28289;BME280;15558;50.874;6.964;2022-09-01T07:58:55;101606.22;;;24.08;44.05
28289;BME280;15558;50.874;6.964;2022-09-01T08:01:25;101597.63;;;24.23;43.53
28289;BME280;15558;50.874;6.964;2022-09-01T08:03:58;101607.00;;;24.51;43.63
28289;BME280;15558;50.874;6.964;2022-09-01T08:06:25;101589.94;;;24.73;41.52
28289;BME280;15558;50.874;6.964;2022-09-01T08:08:54;101594.84;;;24.57;43.17
28289;BME280;15558;50.874;6.964;2022-09-01T08:11:26;101597.41;;;24.93;42.41
28289;BME280;15558;50.874;6.964;2022-09-01T08:13:53;101591.44;;;25.16;41.57
28289;BME280;15558;50.874;6.964;2022-09-01T08:16:20;101586.16;;;25.03;41.35
28289;BME280;15558;50.874;6.964;2022-09-01T08:18:47;101590.88;;;25.11;42.01
28289;BME280;15558;50.874;6.964;2022-09-01T08:21:13;101593.75;;;25.11;41.43
28289;BME280;15558;50.874;6.964;2022-09-01T08:23:40;101595.00;;;25.29;41.04
28289;BME280;15558;50.874;6.964;2022-09-01T08:26:08;101579.41;;;25.67;39.97
28289;BME280;15558;50.874;6.964;2022-09-01T08:28:35;101586.16;;;25.74;40.54
28289;BME280;15558;50.874;6.964;2022-09-01T08:31:14;101581.03;;;26.06;40.48
28289;BME280;15558;50.874;6.964;2022-09-01T08:33:41;101587.94;;;26.68;39.37
28289;BME280;15558;50.874;6.964;2022-09-01T08:36:09;101578.00;;;27.16;38.08
28289;BME280;15558;50.874;6.964;2022-09-01T08:38:36;101580.00;;;28.03;36.00
28289;BME280;15558;50.874;6.964;2022-09-01T08:41:02;101580.78;;;28.40;37.04
28289;BME280;15558;50.874;6.964;2022-09-01T08:46:21;101569.53;;;29.28;33.16
28289;BME280;15558;50.874;6.964;2022-09-01T08:48:52;101575.91;;;29.61;33.42
28289;BME280;15558;50.874;6.964;2022-09-01T08:51:45;101572.78;;;30.03;31.63
28289;BME280;15558;50.874;6.964;2022-09-01T08:54:36;101563.00;;;29.41;32.88
28289;BME280;15558;50.874;6.964;2022-09-01T08:57:13;101577.47;;;28.81;34.07
28289;BME280;15558;50.874;6.964;2022-09-01T08:59:41;101572.56;;;28.42;35.22
28289;BME280;15558;50.874;6.964;2022-09-01T09:04:50;101579.84;;;27.89;35.69
28289;BME280;15558;50.874;6.964;2022-09-01T09:09:58;101568.28;;;27.57;35.72
28289;BME280;15558;50.874;6.964;2022-09-01T09:18:42;101554.81;;;27.64;36.20
28289;BME280;15558;50.874;6.964;2022-09-01T09:21:40;101555.44;;;27.51;36.00
28289;BME280;15558;50.874;6.964;2022-09-01T09:26:36;101554.69;;;27.54;36.83
28289;BME280;15558;50.874;6.964;2022-09-01T09:29:02;101547.88;;;27.72;36.85
28289;BME280;15558;50.874;6.964;2022-09-01T09:33:56;101545.41;;;27.71;36.76
28289;BME280;15558;50.874;6.964;2022-09-01T09:36:34;101530.75;;;27.89;34.92
28289;BME280;15558;50.874;6.964;2022-09-01T09:39:11;101537.31;;;27.87;34.44
28289;BME280;15558;50.874;6.964;2022-09-01T09:41:39;101522.78;;;28.12;33.55
28289;BME280;15558;50.874;6.964;2022-09-01T09:44:24;101535.34;;;27.94;33.87
28289;BME280;15558;50.874;6.964;2022-09-01T09:46:51;101536.16;;;27.94;33.40
28289;BME280;15558;50.874;6.964;2022-09-01T09:49:23;101532.03;;;27.92;34.08
28289;BME280;15558;50.874;6.964;2022-09-01T09:51:53;101527.25;;;28.10;34.33
28289;BME280;15558;50.874;6.964;2022-09-01T09:54:21;101513.97;;;27.98;34.90
28289;BME280;15558;50.874;6.964;2022-09-01T09:57:02;101516.69;;;28.24;35.13
28289;BME280;15558;50.874;6.964;2022-09-01T09:59:31;101517.91;;;28.23;33.04
28289;BME280;15558;50.874;6.964;2022-09-01T10:01:59;101509.88;;;28.46;34.63
28289;BME280;15558;50.874;6.964;2022-09-01T10:04:39;101512.53;;;28.22;32.97
28289;BME280;15558;50.874;6.964;2022-09-01T10:07:34;101499.16;;;28.00;32.67
28289;BME280;15558;50.874;6.964;2022-09-01T10:10:07;101501.47;;;27.91;32.96
28289;BME280;15558;50.874;6.964;2022-09-01T10:12:51;101505.50;;;28.19;33.28
28289;BME280;15558;50.874;6.964;2022-09-01T10:15:21;101490.75;;;28.31;33.10
28289;BME280;15558;50.874;6.964;2022-09-01T10:17:50;101490.66;;;28.67;33.78
28289;BME280;15558;50.874;6.964;2022-09-01T10:20:20;101484.50;;;28.75;33.11
28289;BME280;15558;50.874;6.964;2022-09-01T10:22:47;101490.38;;;28.93;32.30
28289;BME280;15558;50.874;6.964;2022-09-01T10:25:40;101480.03;;;28.88;32.42
28289;BME280;15558;50.874;6.964;2022-09-01T10:28:12;101480.47;;;28.90;32.65
28289;BME280;15558;50.874;6.964;2022-09-01T10:30:41;101480.88;;;28.92;31.92
28289;BME280;15558;50.874;6.964;2022-09-01T10:33:09;101482.97;;;28.98;31.42
28289;BME280;15558;50.874;6.964;2022-09-01T10:35:40;101479.88;;;28.60;30.77
28289;BME280;15558;50.874;6.964;2022-09-01T10:38:36;101478.28;;;28.70;30.52
28289;BME280;15558;50.874;6.964;2022-09-01T10:41:01;101481.25;;;28.80;30.76
28289;BME280;15558;50.874;6.964;2022-09-01T10:48:50;101462.88;;;29.19;30.90
28289;BME280;15558;50.874;6.964;2022-09-01T10:53:50;101457.84;;;29.06;30.90
28289;BME280;15558;50.874;6.964;2022-09-01T10:56:21;101466.63;;;29.20;30.60
28289;BME280;15558;50.874;6.964;2022-09-01T11:04:07;101458.31;;;29.15;30.61
28289;BME280;15558;50.874;6.964;2022-09-01T11:06:43;101447.25;;;29.34;30.61
28289;BME280;15558;50.874;6.964;2022-09-01T11:09:24;101453.06;;;29.48;30.96
28289;BME280;15558;50.874;6.964;2022-09-01T11:12:17;101452.28;;;29.68;30.10
28289;BME280;15558;50.874;6.964;2022-09-01T11:15:02;101466.31;;;29.49;30.08
28289;BME280;15558;50.874;6.964;2022-09-01T11:17:31;101467.13;;;29.42;30.20
28289;BME280;15558;50.874;6.964;2022-09-01T11:20:06;101456.41;;;29.67;29.78
28289;BME280;15558;50.874;6.964;2022-09-01T11:22:40;101449.78;;;29.66;29.61
28289;BME280;15558;50.874;6.964;2022-09-01T11:35:36;101452.34;;;28.80;30.47
28289;BME280;15558;50.874;6.964;2022-09-01T11:38:04;101455.41;;;28.48;31.15
28289;BME280;15558;50.874;6.964;2022-09-01T11:40:34;101455.09;;;28.60;31.63
28289;BME280;15558;50.874;6.964;2022-09-01T11:43:06;101448.50;;;28.62;31.13
28289;BME280;15558;50.874;6.964;2022-09-01T11:45:43;101454.50;;;28.37;32.05
28289;BME280;15558;50.874;6.964;2022-09-01T11:48:15;101448.34;;;28.42;31.69
28289;BME280;15558;50.874;6.964;2022-09-01T11:50:42;101447.94;;;28.43;31.71
28289;BME280;15558;50.874;6.964;2022-09-01T11:53:12;101442.66;;;28.56;31.71
28289;BME280;15558;50.874;6.964;2022-09-01T11:55:42;101433.25;;;28.65;31.90
28289;BME280;15558;50.874;6.964;2022-09-01T11:58:32;101426.69;;;28.75;31.74
28289;BME280;15558;50.874;6.964;2022-09-01T12:01:21;101436.28;;;28.93;31.54
28289;BME280;15558;50.874;6.964;2022-09-01T12:03:49;101432.22;;;29.01;31.27
28289;BME280;15558;50.874;6.964;2022-09-01T12:06:21;101435.31;;;28.65;31.80
28289;BME280;15558;50.874;6.964;2022-09-01T12:09:00;101424.34;;;28.34;32.06
28289;BME280;15558;50.874;6.964;2022-09-01T12:11:31;101433.25;;;28.16;32.54
28289;BME280;15558;50.874;6.964;2022-09-01T12:14:02;101420.38;;;28.03;33.00
28289;BME280;15558;50.874;6.964;2022-09-01T12:16:29;101420.13;;;28.18;32.19
28289;BME280;15558;50.874;6.964;2022-09-01T12:18:57;101412.00;;;28.41;32.70
28289;BME280;15558;50.874;6.964;2022-09-01T12:21:36;101403.41;;;28.48;31.88
28289;BME280;15558;50.874;6.964;2022-09-01T12:24:21;101411.66;;;28.53;31.81
28289;BME280;15558;50.874;6.964;2022-09-01T12:26:50;101402.72;;;28.68;32.39
28289;BME280;15558;50.874;6.964;2022-09-01T12:29:19;101396.16;;;28.78;31.59
28289;BME280;15558;50.874;6.964;2022-09-01T12:31:48;101389.84;;;28.59;31.57
28289;BME280;15558;50.874;6.964;2022-09-01T12:39:34;101397.63;;;29.22;31.70
28289;BME280;15558;50.874;6.964;2022-09-01T12:47:04;101396.38;;;29.30;30.97
28289;BME280;15558;50.874;6.964;2022-09-01T12:49:44;101410.69;;;28.98;31.38
28289;BME280;15558;50.874;6.964;2022-09-01T12:54:39;101395.13;;;29.20;31.50
28289;BME280;15558;50.874;6.964;2022-09-01T12:57:05;101393.88;;;29.18;31.26
28289;BME280;15558;50.874;6.964;2022-09-01T12:59:32;101381.00;;;29.12;30.83
28289;BME280;15558;50.874;6.964;2022-09-01T13:02:31;101384.81;;;29.26;30.76
28289;BME280;15558;50.874;6.964;2022-09-01T13:07:51;101374.78;;;28.99;30.51
28289;BME280;15558;50.874;6.964;2022-09-01T13:10:18;101386.19;;;28.65;31.52
28289;BME280;15558;50.874;6.964;2022-09-01T13:12:45;101392.97;;;28.36;32.05
28289;BME280;15558;50.874;6.964;2022-09-01T13:15:11;101380.59;;;28.36;32.14
28289;BME280;15558;50.874;6.964;2022-09-01T13:17:37;101380.50;;;28.22;32.87
28289;BME280;15558;50.874;6.964;2022-09-01T13:20:07;101383.81;;;28.21;32.89
28289;BME280;15558;50.874;6.964;2022-09-01T13:22:33;101374.66;;;28.12;33.22
28289;BME280;15558;50.874;6.964;2022-09-01T13:25:00;101374.94;;;27.96;33.42
28289;BME280;15558;50.874;6.964;2022-09-01T13:27:26;101369.50;;;27.88;33.75
28289;BME280;15558;50.874;6.964;2022-09-01T13:29:53;101376.19;;;27.95;33.09
28289;BME280;15558;50.874;6.964;2022-09-01T13:32:20;101371.69;;;28.01;32.70
28289;BME280;15558;50.874;6.964;2022-09-01T13:34:48;101361.31;;;27.93;32.70
28289;BME280;15558;50.874;6.964;2022-09-01T13:37:14;101346.13;;;28.03;32.26
28289;BME280;15558;50.874;6.964;2022-09-01T13:39:40;101356.41;;;27.97;32.30
28289;BME280;15558;50.874;6.964;2022-09-01T13:42:06;101342.31;;;27.92;33.25
28289;BME280;15558;50.874;6.964;2022-09-01T13:44:33;101359.06;;;27.73;33.26
28289;BME280;15558;50.874;6.964;2022-09-01T13:46:59;101356.28;;;27.84;33.26
28289;BME280;15558;50.874;6.964;2022-09-01T13:49:25;101345.56;;;27.84;33.49
28289;BME280;15558;50.874;6.964;2022-09-01T13:51:51;101347.63;;;27.84;33.37
28289;BME280;15558;50.874;6.964;2022-09-01T13:54:19;101352.09;;;27.78;33.36
28289;BME280;15558;50.874;6.964;2022-09-01T13:56:45;101359.41;;;27.65;33.46
28289;BME280;15558;50.874;6.964;2022-09-01T13:59:11;101356.44;;;27.54;33.74
28289;BME280;15558;50.874;6.964;2022-09-01T14:01:37;101349.13;;;27.67;33.68
28289;BME280;15558;50.874;6.964;2022-09-01T14:04:06;101348.31;;;27.67;33.60
28289;BME280;15558;50.874;6.964;2022-09-01T14:06:32;101345.41;;;27.67;33.28
28289;BME280;15558;50.874;6.964;2022-09-01T14:08:58;101341.69;;;27.66;33.29
28289;BME280;15558;50.874;6.964;2022-09-01T14:11:24;101331.03;;;27.74;33.49